PWSweather.com
Personal Weather Stations
Station Observations
KWAGIGHA17
Gig Harbor, WA 98332

Gig Harbor, WA 98332

Lat: 47.35323, Lon: -122.58817

Elevation: 318

Station Type: Davis VP2 Wireless

http://www.gigharborweather.com

Latest ConditionsUpdated 3:10:01 PM PDT Saturday, Oct 1, 2016
Currently Today's Max Today's Min Today's Average
Temperature 60.4°F15.8°C 60.4°F15.8°C 49.6°F9.8°C 52.6°F11.4°C
Dew Point 50.9°F10.5°C 52.0°F11.1°C 45.7°F7.6°C 47.6°F8.7°C
Winds 5.8 mph S9.3 kmh S 6.9 mph SE11.1 kmh SE - 0.6 mph 1.0 kmh
Wind Gusts 11.5 mph18.5 kmh 15.0 mph24.1 kmh - -
Humidity 71% 88% 68% 83%
Pressure 29.94 in1013.9 mb 29.96 in1014.6 mb 29.91 in1012.9 mb -
Precipitation - 0.10 in2.5 mm - -
Hour Temp Dew Point Humidity Winds Wind Gusts Pressure Precip Precip Rate Daily Precip Total
03:10 PM 60.4°F15.8°C 50.9°F10.5°C 71% 5.8 mph S9.3 kmh S 11.5 mph18.5 kmh 29.94 in1013.9 mb - 0.00 in0.0 mm 0.10 in2.5 mm
02:50 PM 57.6°F14.2°C 50.1°F10.1°C 76% 6.9 mph SE11.1 kmh SE 15.0 mph24.1 kmh 29.94 in1013.9 mb - 0.00 in0.0 mm 0.10 in2.5 mm
02:40 PM 56.9°F13.8°C 50.1°F10.1°C 78% 3.5 mph SW5.6 kmh SW 3.5 mph5.6 kmh 29.94 in1013.9 mb - 0.00 in0.0 mm 0.10 in2.5 mm
02:30 PM 56.9°F13.8°C 50.5°F10.3°C 79% 1.2 mph SE1.9 kmh SE 4.6 mph7.4 kmh 29.94 in1013.9 mb - 0.00 in0.0 mm 0.10 in2.5 mm
02:20 PM 56.6°F13.7°C 51.5°F10.8°C 83% 2.3 mph S3.7 kmh S 3.5 mph5.6 kmh 29.94 in1013.9 mb - 0.00 in0.0 mm 0.10 in2.5 mm
02:10 PM 56.1°F13.4°C 51.6°F10.9°C 85% 1.2 mph S1.9 kmh S 4.6 mph7.4 kmh 29.94 in1013.9 mb - 0.00 in0.0 mm 0.10 in2.5 mm
02:00 PM 55.8°F13.2°C 52.0°F11.1°C 87% Calm Calm -- 29.93 in1013.5 mb - 0.00 in0.0 mm 0.10 in2.5 mm
01:50 PM 55.1°F12.8°C 51.3°F10.7°C 87% Calm Calm 1.2 mph1.9 kmh 29.93 in1013.5 mb - 0.00 in0.0 mm 0.10 in2.5 mm
01:40 PM 54.7°F12.6°C 50.9°F10.5°C 87% 1.2 mph S1.9 kmh S 1.2 mph1.9 kmh 29.93 in1013.5 mb - 0.00 in0.0 mm 0.10 in2.5 mm
01:30 PM 54.1°F12.3°C 50.0°F10.0°C 86% Calm Calm -- 29.93 in1013.5 mb - 0.00 in0.0 mm 0.10 in2.5 mm
01:20 PM 53.6°F12.0°C 49.5°F9.7°C 86% 1.2 mph SE1.9 kmh SE -- 29.93 in1013.5 mb - 0.01 in0.3 mm 0.10 in2.5 mm
01:10 PM 53.7°F12.1°C 49.3°F9.6°C 85% Calm Calm 3.5 mph5.6 kmh 29.93 in1013.5 mb - 0.01 in0.3 mm 0.09 in2.3 mm
01:00 PM 53.8°F12.1°C 49.1°F9.5°C 84% Calm Calm 2.3 mph3.7 kmh 29.93 in1013.5 mb - 0.00 in0.0 mm 0.08 in2.0 mm
12:50 PM 54.1°F12.3°C 49.1°F9.5°C 83% Calm Calm 2.3 mph3.7 kmh 29.93 in1013.5 mb - 0.03 in0.8 mm 0.08 in2.0 mm
12:40 PM 54.4°F12.4°C 49.1°F9.5°C 82% 1.2 mph S1.9 kmh S 2.3 mph3.7 kmh 29.94 in1013.9 mb - 0.02 in0.5 mm 0.06 in1.5 mm
12:30 PM 54.8°F12.7°C 49.4°F9.7°C 82% 1.2 mph SW1.9 kmh SW 3.5 mph5.6 kmh 29.93 in1013.5 mb - 0.01 in0.3 mm 0.04 in1.0 mm
12:20 PM 55.2°F12.9°C 49.2°F9.6°C 80% 1.2 mph SSE1.9 kmh SSE 4.6 mph7.4 kmh 29.93 in1013.5 mb - 0.01 in0.3 mm 0.03 in0.8 mm
12:10 PM 55.8°F13.2°C 49.0°F9.4°C 78% 2.3 mph S3.7 kmh S 8.1 mph13.0 kmh 29.93 in1013.5 mb - 0.01 in0.3 mm 0.02 in0.5 mm
12:00 PM 56.3°F13.5°C 49.2°F9.6°C 77% Calm Calm -- 29.92 in1013.2 mb - 0.00 in0.0 mm 0.01 in0.3 mm
11:50 AM 56.6°F13.7°C 49.5°F9.7°C 77% 2.3 mph SSW3.7 kmh SSW 4.6 mph7.4 kmh 29.92 in1013.2 mb - 0.01 in0.3 mm 0.01 in0.3 mm
11:40 AM 56.8°F13.8°C 48.2°F9.0°C 73% 2.3 mph SSW3.7 kmh SSW 9.2 mph14.8 kmh 29.92 in1013.2 mb - 0.01 in0.3 mm 0.01 in0.3 mm
11:30 AM 57.1°F13.9°C 47.8°F8.8°C 71% 2.3 mph SSW3.7 kmh SSW 3.5 mph5.6 kmh 29.92 in1013.2 mb - 0.00 in0.0 mm 0.00 in0.0 mm
11:20 AM 57.2°F14.0°C 47.5°F8.6°C 70% Calm Calm 1.2 mph1.9 kmh 29.92 in1013.2 mb - 0.00 in0.0 mm 0.00 in0.0 mm
11:10 AM 57.3°F14.1°C 47.2°F8.4°C 69% 4.6 mph SE7.4 kmh SE 6.9 mph11.1 kmh 29.91 in1012.9 mb - 0.00 in0.0 mm 0.00 in0.0 mm
11:00 AM 57.0°F13.9°C 46.5°F8.1°C 68% 3.5 mph SW5.6 kmh SW 9.2 mph14.8 kmh 29.91 in1012.9 mb - 0.00 in0.0 mm 0.00 in0.0 mm
10:50 AM 56.8°F13.8°C 47.1°F8.4°C 70% 2.3 mph W3.7 kmh W 4.6 mph7.4 kmh 29.91 in1012.9 mb - 0.00 in0.0 mm 0.00 in0.0 mm
10:40 AM 56.7°F13.7°C 47.4°F8.6°C 71% 2.3 mph SSE3.7 kmh SSE 4.6 mph7.4 kmh 29.91 in1012.9 mb - 0.00 in0.0 mm 0.00 in0.0 mm
10:30 AM 56.5°F13.6°C 47.6°F8.7°C 72% 1.2 mph SSE1.9 kmh SSE 5.8 mph9.3 kmh 29.91 in1012.9 mb - 0.00 in0.0 mm 0.00 in0.0 mm
10:20 AM 56.2°F13.4°C 47.6°F8.7°C 73% 2.3 mph SSE3.7 kmh SSE 3.5 mph5.6 kmh 29.91 in1012.9 mb - 0.00 in0.0 mm 0.00 in0.0 mm
10:00 AM 54.4°F12.4°C 48.3°F9.1°C 80% Calm Calm 1.2 mph1.9 kmh 29.91 in1012.9 mb - 0.00 in0.0 mm 0.00 in0.0 mm
09:40 AM 52.4°F11.3°C 48.3°F9.1°C 86% 2.3 mph S3.7 kmh S 5.8 mph9.3 kmh 29.91 in1012.9 mb - 0.00 in0.0 mm 0.00 in0.0 mm
09:30 AM 51.7°F10.9°C 48.0°F8.9°C 87% Calm Calm 1.2 mph1.9 kmh 29.91 in1012.9 mb - 0.00 in0.0 mm 0.00 in0.0 mm
09:20 AM 51.2°F10.7°C 47.5°F8.6°C 87% Calm Calm -- 29.91 in1012.9 mb - 0.00 in0.0 mm 0.00 in0.0 mm
09:10 AM 50.9°F10.5°C 47.2°F8.4°C 87% Calm Calm -- 29.91 in1012.9 mb - 0.00 in0.0 mm 0.00 in0.0 mm
09:00 AM 50.7°F10.4°C 47.3°F8.5°C 88% Calm Calm -- 29.91 in1012.9 mb - 0.00 in0.0 mm 0.00 in0.0 mm
08:50 AM 50.5°F10.3°C 47.1°F8.4°C 88% Calm Calm -- 29.91 in1012.9 mb - 0.00 in0.0 mm 0.00 in0.0 mm
08:40 AM 50.3°F10.2°C 46.9°F8.3°C 88% Calm Calm -- 29.91 in1012.9 mb - 0.00 in0.0 mm 0.00 in0.0 mm
08:30 AM 50.1°F10.1°C 46.4°F8.0°C 87% Calm Calm -- 29.91 in1012.9 mb - 0.00 in0.0 mm 0.00 in0.0 mm
08:20 AM 50.0°F10.0°C 46.3°F7.9°C 87% Calm Calm -- 29.91 in1012.9 mb - 0.00 in0.0 mm 0.00 in0.0 mm
08:10 AM 49.9°F9.9°C 46.2°F7.9°C 87% Calm Calm -- 29.91 in1012.9 mb - 0.00 in0.0 mm 0.00 in0.0 mm
08:00 AM 49.8°F9.9°C 46.1°F7.8°C 87% Calm Calm -- 29.91 in1012.9 mb - 0.00 in0.0 mm 0.00 in0.0 mm
07:50 AM 49.7°F9.8°C 46.0°F7.8°C 87% Calm Calm -- 29.91 in1012.9 mb - 0.00 in0.0 mm 0.00 in0.0 mm
07:40 AM 49.6°F9.8°C 45.9°F7.7°C 87% Calm Calm -- 29.91 in1012.9 mb - 0.00 in0.0 mm 0.00 in0.0 mm
07:30 AM 49.6°F9.8°C 45.9°F7.7°C 87% Calm Calm -- 29.91 in1012.9 mb - 0.00 in0.0 mm 0.00 in0.0 mm
07:20 AM 49.6°F9.8°C 45.9°F7.7°C 87% Calm Calm -- 29.91 in1012.9 mb - 0.00 in0.0 mm 0.00 in0.0 mm
07:10 AM 49.7°F9.8°C 46.0°F7.8°C 87% Calm Calm -- 29.91 in1012.9 mb - 0.00 in0.0 mm 0.00 in0.0 mm
07:00 AM 49.7°F9.8°C 46.0°F7.8°C 87% Calm Calm -- 29.91 in1012.9 mb - 0.00 in0.0 mm 0.00 in0.0 mm
06:50 AM 49.7°F9.8°C 46.0°F7.8°C 87% Calm Calm -- 29.91 in1012.9 mb - 0.00 in0.0 mm 0.00 in0.0 mm
06:40 AM 49.7°F9.8°C 46.0°F7.8°C 87% Calm Calm -- 29.91 in1012.9 mb - 0.00 in0.0 mm 0.00 in0.0 mm
06:30 AM 49.7°F9.8°C 45.7°F7.6°C 86% Calm Calm -- 29.91 in1012.9 mb - 0.00 in0.0 mm 0.00 in0.0 mm
06:20 AM 49.8°F9.9°C 45.8°F7.7°C 86% Calm Calm -- 29.91 in1012.9 mb - 0.00 in0.0 mm 0.00 in0.0 mm
06:10 AM 50.0°F10.0°C 46.0°F7.8°C 86% Calm Calm -- 29.91 in1012.9 mb - 0.00 in0.0 mm 0.00 in0.0 mm
06:00 AM 50.2°F10.1°C 46.2°F7.9°C 86% Calm Calm -- 29.91 in1012.9 mb - 0.00 in0.0 mm 0.00 in0.0 mm
05:50 AM 50.4°F10.2°C 46.3°F7.9°C 86% Calm Calm -- 29.91 in1012.9 mb - 0.00 in0.0 mm 0.00 in0.0 mm
05:40 AM 50.5°F10.3°C 46.5°F8.1°C 86% Calm Calm -- 29.91 in1012.9 mb - 0.00 in0.0 mm 0.00 in0.0 mm
05:30 AM 50.6°F10.3°C 46.6°F8.1°C 86% Calm Calm -- 29.91 in1012.9 mb - 0.00 in0.0 mm 0.00 in0.0 mm
05:20 AM 50.8°F10.4°C 46.8°F8.2°C 86% Calm Calm -- 29.91 in1012.9 mb - 0.00 in0.0 mm 0.00 in0.0 mm
05:10 AM 50.9°F10.5°C 46.9°F8.3°C 86% Calm Calm -- 29.91 in1012.9 mb - 0.00 in0.0 mm 0.00 in0.0 mm
05:00 AM 50.9°F10.5°C 46.9°F8.3°C 86% Calm Calm -- 29.92 in1013.2 mb - 0.00 in0.0 mm 0.00 in0.0 mm
04:50 AM 51.0°F10.6°C 47.0°F8.3°C 86% Calm Calm -- 29.92 in1013.2 mb - 0.00 in0.0 mm 0.00 in0.0 mm
04:40 AM 51.0°F10.6°C 47.0°F8.3°C 86% Calm Calm -- 29.92 in1013.2 mb - 0.00 in0.0 mm 0.00 in0.0 mm
04:30 AM 51.1°F10.6°C 47.4°F8.6°C 87% Calm Calm -- 29.92 in1013.2 mb - 0.00 in0.0 mm 0.00 in0.0 mm
04:20 AM 51.2°F10.7°C 47.5°F8.6°C 87% Calm Calm -- 29.92 in1013.2 mb - 0.00 in0.0 mm 0.00 in0.0 mm
04:10 AM 51.2°F10.7°C 47.5°F8.6°C 87% Calm Calm -- 29.93 in1013.5 mb - 0.00 in0.0 mm 0.00 in0.0 mm
04:00 AM 51.2°F10.7°C 47.4°F8.6°C 87% Calm Calm -- 29.93 in1013.5 mb - 0.00 in0.0 mm 0.00 in0.0 mm
03:50 AM 51.2°F10.7°C 47.2°F8.4°C 86% Calm Calm -- 29.93 in1013.5 mb - 0.00 in0.0 mm 0.00 in0.0 mm
03:40 AM 51.2°F10.7°C 47.2°F8.4°C 86% Calm Calm -- 29.94 in1013.9 mb - 0.00 in0.0 mm 0.00 in0.0 mm
03:30 AM 51.2°F10.7°C 47.2°F8.4°C 86% Calm Calm -- 29.94 in1013.9 mb - 0.00 in0.0 mm 0.00 in0.0 mm
03:20 AM 51.2°F10.7°C 47.1°F8.4°C 86% Calm Calm -- 29.94 in1013.9 mb - 0.00 in0.0 mm 0.00 in0.0 mm
03:10 AM 51.2°F10.7°C 47.1°F8.4°C 86% Calm Calm -- 29.94 in1013.9 mb - 0.00 in0.0 mm 0.00 in0.0 mm
03:00 AM 51.1°F10.6°C 47.1°F8.4°C 86% Calm Calm -- 29.94 in1013.9 mb - 0.00 in0.0 mm 0.00 in0.0 mm
02:50 AM 51.1°F10.6°C 47.1°F8.4°C 86% Calm Calm -- 29.94 in1013.9 mb - 0.00 in0.0 mm 0.00 in0.0 mm
02:40 AM 51.1°F10.6°C 47.1°F8.4°C 86% Calm Calm -- 29.95 in1014.2 mb - 0.00 in0.0 mm 0.00 in0.0 mm
02:30 AM 51.1°F10.6°C 47.1°F8.4°C 86% Calm Calm -- 29.95 in1014.2 mb - 0.00 in0.0 mm 0.00 in0.0 mm
02:20 AM 51.1°F10.6°C 47.0°F8.3°C 86% Calm Calm -- 29.95 in1014.2 mb - 0.00 in0.0 mm 0.00 in0.0 mm
02:10 AM 51.1°F10.6°C 47.1°F8.4°C 86% Calm Calm -- 29.95 in1014.2 mb - 0.00 in0.0 mm 0.00 in0.0 mm
02:00 AM 51.2°F10.7°C 46.8°F8.2°C 85% Calm Calm -- 29.95 in1014.2 mb - 0.00 in0.0 mm 0.00 in0.0 mm
01:50 AM 51.2°F10.7°C 46.9°F8.3°C 85% Calm Calm -- 29.95 in1014.2 mb - 0.00 in0.0 mm 0.00 in0.0 mm
01:40 AM 51.4°F10.8°C 46.7°F8.2°C 84% Calm Calm -- 29.95 in1014.2 mb - 0.00 in0.0 mm 0.00 in0.0 mm
01:30 AM 51.5°F10.8°C 46.8°F8.2°C 84% Calm Calm -- 29.95 in1014.2 mb - 0.00 in0.0 mm 0.00 in0.0 mm
01:20 AM 51.6°F10.9°C 46.9°F8.3°C 84% Calm Calm -- 29.96 in1014.6 mb - 0.00 in0.0 mm 0.00 in0.0 mm
01:10 AM 51.7°F10.9°C 47.0°F8.3°C 84% Calm Calm -- 29.96 in1014.6 mb - 0.00 in0.0 mm 0.00 in0.0 mm
01:00 AM 51.8°F11.0°C 47.1°F8.4°C 84% Calm Calm -- 29.96 in1014.6 mb - 0.00 in0.0 mm 0.00 in0.0 mm
12:50 AM 51.9°F11.1°C 47.2°F8.4°C 84% Calm Calm -- 29.96 in1014.6 mb - 0.00 in0.0 mm 0.00 in0.0 mm
12:40 AM 51.9°F11.1°C 46.9°F8.3°C 83% Calm Calm -- 29.96 in1014.6 mb - 0.00 in0.0 mm 0.00 in0.0 mm
12:30 AM 52.1°F11.2°C 47.1°F8.4°C 83% Calm Calm 1.2 mph1.9 kmh 29.96 in1014.6 mb - 0.00 in0.0 mm 0.00 in0.0 mm
12:20 AM 52.3°F11.3°C 47.3°F8.5°C 83% Calm Calm 1.2 mph1.9 kmh 29.96 in1014.6 mb - 0.00 in0.0 mm 0.00 in0.0 mm
12:10 AM 52.5°F11.4°C 47.1°F8.4°C 82% Calm Calm -- 29.96 in1014.6 mb - 0.00 in0.0 mm 0.00 in0.0 mm
12:00 AM 52.6°F11.4°C 46.9°F8.3°C 81% 2.3 mph SW3.7 kmh SW 4.6 mph7.4 kmh 29.96 in1014.6 mb - 0.00 in0.0 mm 0.00 in0.0 mm